Hilton Head Airport

Date: 2024-06-11 03:55:00Z

Type: METAR

Weather: Thunderstorms

Winds: Winds Calm

Visibility: 10+

Ceiling (AGL FT): Clouds FEW at 1800, BROKEN at 6500, OVERCAST at 11000, OVERCAST at 17000

RAW METAR: KHXD 110355Z AUTO 00000KT 10SM TS FEW018 BKN065 OVC110 25/23 A2984 RMK AO2 LTG DSNT ALQDS

project-image